sensor_id;sensor_type;location;lat;lon;timestamp;P1;durP1;ratioP1;P2;durP2;ratioP2
68457;SDS011;65384;52.016;5.428;2022-12-05T00:00:15;51.65;;;17.25;;
68457;SDS011;65384;52.016;5.428;2022-12-05T00:02:40;54.78;;;17.67;;
68457;SDS011;65384;52.016;5.428;2022-12-05T00:05:06;56.83;;;16.92;;
68457;SDS011;65384;52.016;5.428;2022-12-05T00:07:32;54.28;;;16.85;;
68457;SDS011;65384;52.016;5.428;2022-12-05T00:09:57;53.00;;;16.48;;
68457;SDS011;65384;52.016;5.428;2022-12-05T00:12:22;52.25;;;16.85;;
68457;SDS011;65384;52.016;5.428;2022-12-05T00:14:48;50.40;;;16.35;;
68457;SDS011;65384;52.016;5.428;2022-12-05T00:17:13;51.55;;;17.20;;
68457;SDS011;65384;52.016;5.428;2022-12-05T00:19:39;48.00;;;16.52;;
68457;SDS011;65384;52.016;5.428;2022-12-05T00:22:04;49.72;;;16.90;;
68457;SDS011;65384;52.016;5.428;2022-12-05T00:24:29;49.75;;;17.02;;
68457;SDS011;65384;52.016;5.428;2022-12-05T00:26:55;53.17;;;17.35;;
68457;SDS011;65384;52.016;5.428;2022-12-05T00:29:20;53.85;;;17.88;;
68457;SDS011;65384;52.016;5.428;2022-12-05T00:31:45;57.42;;;17.55;;
68457;SDS011;65384;52.016;5.428;2022-12-05T00:34:11;55.42;;;17.95;;
68457;SDS011;65384;52.016;5.428;2022-12-05T00:36:36;53.20;;;16.38;;
68457;SDS011;65384;52.016;5.428;2022-12-05T00:39:07;51.58;;;17.45;;
68457;SDS011;65384;52.016;5.428;2022-12-05T00:41:33;54.42;;;16.77;;
68457;SDS011;65384;52.016;5.428;2022-12-05T00:43:59;51.67;;;16.90;;
68457;SDS011;65384;52.016;5.428;2022-12-05T00:46:27;52.03;;;17.23;;
68457;SDS011;65384;52.016;5.428;2022-12-05T00:48:53;51.65;;;17.33;;
68457;SDS011;65384;52.016;5.428;2022-12-05T00:51:24;49.10;;;17.10;;
68457;SDS011;65384;52.016;5.428;2022-12-05T00:53:54;54.42;;;17.10;;
68457;SDS011;65384;52.016;5.428;2022-12-05T00:56:22;49.33;;;16.60;;
68457;SDS011;65384;52.016;5.428;2022-12-05T00:58:49;52.03;;;17.30;;
68457;SDS011;65384;52.016;5.428;2022-12-05T01:04:21;53.88;;;16.58;;
68457;SDS011;65384;52.016;5.428;2022-12-05T01:06:48;55.92;;;17.92;;
68457;SDS011;65384;52.016;5.428;2022-12-05T01:09:15;53.10;;;16.75;;
68457;SDS011;65384;52.016;5.428;2022-12-05T01:11:42;51.97;;;16.60;;
68457;SDS011;65384;52.016;5.428;2022-12-05T01:14:08;49.08;;;16.83;;
68457;SDS011;65384;52.016;5.428;2022-12-05T01:16:36;50.10;;;15.77;;
68457;SDS011;65384;52.016;5.428;2022-12-05T01:19:04;50.10;;;16.92;;
68457;SDS011;65384;52.016;5.428;2022-12-05T01:21:31;49.38;;;15.85;;
68457;SDS011;65384;52.016;5.428;2022-12-05T01:23:56;50.28;;;16.33;;
68457;SDS011;65384;52.016;5.428;2022-12-05T01:26:22;53.88;;;16.58;;
68457;SDS011;65384;52.016;5.428;2022-12-05T01:28:48;51.28;;;17.10;;
68457;SDS011;65384;52.016;5.428;2022-12-05T01:33:50;53.10;;;16.23;;
68457;SDS011;65384;52.016;5.428;2022-12-05T01:36:16;52.28;;;17.52;;
68457;SDS011;65384;52.016;5.428;2022-12-05T01:38:42;52.53;;;16.00;;
68457;SDS011;65384;52.016;5.428;2022-12-05T01:41:10;51.60;;;17.10;;
68457;SDS011;65384;52.016;5.428;2022-12-05T01:43:57;48.78;;;16.25;;
68457;SDS011;65384;52.016;5.428;2022-12-05T01:46:23;50.05;;;15.57;;
68457;SDS011;65384;52.016;5.428;2022-12-05T01:48:50;52.05;;;16.15;;
68457;SDS011;65384;52.016;5.428;2022-12-05T01:51:19;47.65;;;15.98;;
68457;SDS011;65384;52.016;5.428;2022-12-05T01:53:44;50.50;;;16.50;;
68457;SDS011;65384;52.016;5.428;2022-12-05T01:56:10;53.28;;;16.95;;
68457;SDS011;65384;52.016;5.428;2022-12-05T01:58:36;48.58;;;16.23;;
68457;SDS011;65384;52.016;5.428;2022-12-05T02:01:03;43.72;;;15.48;;
68457;SDS011;65384;52.016;5.428;2022-12-05T02:03:28;53.70;;;17.10;;
68457;SDS011;65384;52.016;5.428;2022-12-05T02:05:54;45.90;;;16.10;;
68457;SDS011;65384;52.016;5.428;2022-12-05T02:08:21;53.28;;;16.88;;
68457;SDS011;65384;52.016;5.428;2022-12-05T02:10:50;51.42;;;17.48;;
68457;SDS011;65384;52.016;5.428;2022-12-05T02:15:54;47.53;;;15.30;;
68457;SDS011;65384;52.016;5.428;2022-12-05T02:18:41;53.30;;;17.00;;
68457;SDS011;65384;52.016;5.428;2022-12-05T02:26:48;46.38;;;15.68;;
68457;SDS011;65384;52.016;5.428;2022-12-05T02:35:33;49.65;;;15.65;;
68457;SDS011;65384;52.016;5.428;2022-12-05T02:40:54;50.63;;;15.43;;
68457;SDS011;65384;52.016;5.428;2022-12-05T02:43:29;49.72;;;16.02;;
68457;SDS011;65384;52.016;5.428;2022-12-05T02:45:57;49.20;;;15.65;;
68457;SDS011;65384;52.016;5.428;2022-12-05T02:48:25;47.08;;;15.52;;
68457;SDS011;65384;52.016;5.428;2022-12-05T02:50:52;45.70;;;15.57;;
68457;SDS011;65384;52.016;5.428;2022-12-05T02:53:18;45.88;;;15.65;;
68457;SDS011;65384;52.016;5.428;2022-12-05T02:55:45;47.15;;;16.27;;
68457;SDS011;65384;52.016;5.428;2022-12-05T02:58:18;46.22;;;15.18;;
68457;SDS011;65384;52.016;5.428;2022-12-05T03:00:48;51.95;;;16.38;;
68457;SDS011;65384;52.016;5.428;2022-12-05T03:03:15;48.78;;;16.02;;
68457;SDS011;65384;52.016;5.428;2022-12-05T03:08:15;50.65;;;16.90;;
68457;SDS011;65384;52.016;5.428;2022-12-05T03:10:43;50.15;;;15.90;;
68457;SDS011;65384;52.016;5.428;2022-12-05T03:13:11;47.65;;;15.73;;
68457;SDS011;65384;52.016;5.428;2022-12-05T03:15:41;52.70;;;16.52;;
68457;SDS011;65384;52.016;5.428;2022-12-05T03:18:10;46.03;;;15.75;;
68457;SDS011;65384;52.016;5.428;2022-12-05T03:20:51;52.35;;;16.88;;
68457;SDS011;65384;52.016;5.428;2022-12-05T03:23:24;43.78;;;14.82;;
68457;SDS011;65384;52.016;5.428;2022-12-05T03:25:58;48.90;;;15.52;;
68457;SDS011;65384;52.016;5.428;2022-12-05T03:29:23;42.63;;;15.73;;
68457;SDS011;65384;52.016;5.428;2022-12-05T03:34:09;50.20;;;15.48;;
68457;SDS011;65384;52.016;5.428;2022-12-05T03:36:39;43.88;;;15.43;;
68457;SDS011;65384;52.016;5.428;2022-12-05T03:39:07;45.33;;;14.50;;
68457;SDS011;65384;52.016;5.428;2022-12-05T03:41:50;43.53;;;14.60;;
68457;SDS011;65384;52.016;5.428;2022-12-05T03:46:58;43.10;;;14.23;;
68457;SDS011;65384;52.016;5.428;2022-12-05T03:49:29;49.20;;;16.05;;
68457;SDS011;65384;52.016;5.428;2022-12-05T03:52:07;43.97;;;15.27;;
68457;SDS011;65384;52.016;5.428;2022-12-05T03:54:36;46.30;;;15.32;;
68457;SDS011;65384;52.016;5.428;2022-12-05T03:59:52;42.40;;;14.88;;
68457;SDS011;65384;52.016;5.428;2022-12-05T04:02:29;42.90;;;14.27;;
68457;SDS011;65384;52.016;5.428;2022-12-05T04:05:07;46.63;;;14.50;;
68457;SDS011;65384;52.016;5.428;2022-12-05T04:07:37;40.42;;;13.80;;
68457;SDS011;65384;52.016;5.428;2022-12-05T04:10:13;43.13;;;14.20;;
68457;SDS011;65384;52.016;5.428;2022-12-05T04:12:40;40.22;;;13.90;;
68457;SDS011;65384;52.016;5.428;2022-12-05T04:15:09;44.83;;;14.90;;
68457;SDS011;65384;52.016;5.428;2022-12-05T04:17:47;43.63;;;14.40;;
68457;SDS011;65384;52.016;5.428;2022-12-05T04:20:18;42.80;;;13.85;;
68457;SDS011;65384;52.016;5.428;2022-12-05T04:23:04;37.67;;;13.30;;
68457;SDS011;65384;52.016;5.428;2022-12-05T04:25:42;43.45;;;14.15;;
68457;SDS011;65384;52.016;5.428;2022-12-05T04:28:35;40.70;;;13.38;;
68457;SDS011;65384;52.016;5.428;2022-12-05T04:31:31;37.72;;;13.43;;
68457;SDS011;65384;52.016;5.428;2022-12-05T04:33:59;38.88;;;13.52;;
68457;SDS011;65384;52.016;5.428;2022-12-05T04:42:19;39.20;;;12.88;;
68457;SDS011;65384;52.016;5.428;2022-12-05T04:44:51;35.45;;;13.07;;
68457;SDS011;65384;52.016;5.428;2022-12-05T04:47:18;36.67;;;13.05;;
68457;SDS011;65384;52.016;5.428;2022-12-05T04:49:45;38.42;;;13.77;;
68457;SDS011;65384;52.016;5.428;2022-12-05T04:52:12;38.55;;;13.10;;
68457;SDS011;65384;52.016;5.428;2022-12-05T04:54:42;38.78;;;13.65;;
68457;SDS011;65384;52.016;5.428;2022-12-05T04:57:30;40.10;;;14.13;;
68457;SDS011;65384;52.016;5.428;2022-12-05T04:59:59;43.03;;;13.43;;
68457;SDS011;65384;52.016;5.428;2022-12-05T05:02:27;37.72;;;13.32;;
68457;SDS011;65384;52.016;5.428;2022-12-05T05:05:02;39.22;;;13.50;;
68457;SDS011;65384;52.016;5.428;2022-12-05T05:07:31;36.60;;;13.02;;
68457;SDS011;65384;52.016;5.428;2022-12-05T05:10:07;43.20;;;13.88;;
68457;SDS011;65384;52.016;5.428;2022-12-05T05:12:33;40.38;;;14.02;;
68457;SDS011;65384;52.016;5.428;2022-12-05T05:14:58;39.42;;;13.85;;
68457;SDS011;65384;52.016;5.428;2022-12-05T05:17:23;38.10;;;13.68;;
68457;SDS011;65384;52.016;5.428;2022-12-05T05:19:49;38.03;;;12.45;;
68457;SDS011;65384;52.016;5.428;2022-12-05T05:22:14;35.60;;;13.18;;
68457;SDS011;65384;52.016;5.428;2022-12-05T05:24:39;39.58;;;13.43;;
68457;SDS011;65384;52.016;5.428;2022-12-05T05:27:05;41.13;;;13.30;;
68457;SDS011;65384;52.016;5.428;2022-12-05T05:29:30;36.88;;;12.90;;
68457;SDS011;65384;52.016;5.428;2022-12-05T05:31:55;38.30;;;13.25;;
68457;SDS011;65384;52.016;5.428;2022-12-05T05:34:21;39.92;;;13.43;;
68457;SDS011;65384;52.016;5.428;2022-12-05T05:36:49;37.70;;;12.73;;
68457;SDS011;65384;52.016;5.428;2022-12-05T05:39:15;37.63;;;12.77;;
68457;SDS011;65384;52.016;5.428;2022-12-05T05:41:41;35.38;;;13.55;;
68457;SDS011;65384;52.016;5.428;2022-12-05T05:44:06;39.28;;;13.55;;
68457;SDS011;65384;52.016;5.428;2022-12-05T05:46:33;33.08;;;12.80;;
68457;SDS011;65384;52.016;5.428;2022-12-05T05:49:00;38.58;;;13.35;;
68457;SDS011;65384;52.016;5.428;2022-12-05T05:51:26;33.53;;;12.02;;
68457;SDS011;65384;52.016;5.428;2022-12-05T05:53:53;39.60;;;12.90;;
68457;SDS011;65384;52.016;5.428;2022-12-05T05:56:19;34.28;;;12.60;;
68457;SDS011;65384;52.016;5.428;2022-12-05T05:58:45;35.22;;;13.15;;
68457;SDS011;65384;52.016;5.428;2022-12-05T06:01:15;38.40;;;13.70;;
68457;SDS011;65384;52.016;5.428;2022-12-05T06:03:41;32.83;;;12.57;;
68457;SDS011;65384;52.016;5.428;2022-12-05T06:06:08;35.70;;;12.85;;
68457;SDS011;65384;52.016;5.428;2022-12-05T06:08:35;37.90;;;13.73;;
68457;SDS011;65384;52.016;5.428;2022-12-05T06:11:05;37.65;;;12.98;;
68457;SDS011;65384;52.016;5.428;2022-12-05T06:13:32;37.08;;;13.40;;
68457;SDS011;65384;52.016;5.428;2022-12-05T06:15:57;34.38;;;12.13;;
68457;SDS011;65384;52.016;5.428;2022-12-05T06:18:22;34.40;;;12.73;;
68457;SDS011;65384;52.016;5.428;2022-12-05T06:20:54;31.15;;;12.10;;
68457;SDS011;65384;52.016;5.428;2022-12-05T06:23:20;36.35;;;12.75;;
68457;SDS011;65384;52.016;5.428;2022-12-05T06:25:53;35.78;;;12.52;;
68457;SDS011;65384;52.016;5.428;2022-12-05T06:28:19;33.60;;;12.52;;
68457;SDS011;65384;52.016;5.428;2022-12-05T06:30:46;34.80;;;12.43;;
68457;SDS011;65384;52.016;5.428;2022-12-05T06:33:11;36.97;;;12.82;;
68457;SDS011;65384;52.016;5.428;2022-12-05T06:35:37;35.13;;;13.27;;
68457;SDS011;65384;52.016;5.428;2022-12-05T06:38:02;34.03;;;12.05;;
68457;SDS011;65384;52.016;5.428;2022-12-05T06:40:28;30.98;;;12.50;;
68457;SDS011;65384;52.016;5.428;2022-12-05T06:42:53;36.58;;;12.88;;
68457;SDS011;65384;52.016;5.428;2022-12-05T06:45:19;35.38;;;12.95;;
68457;SDS011;65384;52.016;5.428;2022-12-05T06:47:44;35.53;;;12.88;;
68457;SDS011;65384;52.016;5.428;2022-12-05T06:50:09;33.53;;;12.95;;
68457;SDS011;65384;52.016;5.428;2022-12-05T06:52:35;35.45;;;13.38;;
68457;SDS011;65384;52.016;5.428;2022-12-05T06:55:00;39.58;;;13.50;;
68457;SDS011;65384;52.016;5.428;2022-12-05T06:57:29;35.50;;;13.27;;
68457;SDS011;65384;52.016;5.428;2022-12-05T06:59:54;36.30;;;13.25;;
68457;SDS011;65384;52.016;5.428;2022-12-05T07:02:40;34.83;;;12.07;;
68457;SDS011;65384;52.016;5.428;2022-12-05T07:05:06;38.40;;;13.30;;
68457;SDS011;65384;52.016;5.428;2022-12-05T07:07:32;37.83;;;13.32;;
68457;SDS011;65384;52.016;5.428;2022-12-05T07:09:58;37.88;;;13.23;;
68457;SDS011;65384;52.016;5.428;2022-12-05T07:12:23;39.45;;;13.00;;
68457;SDS011;65384;52.016;5.428;2022-12-05T07:14:48;33.78;;;13.00;;
68457;SDS011;65384;52.016;5.428;2022-12-05T07:17:14;32.60;;;12.85;;
68457;SDS011;65384;52.016;5.428;2022-12-05T07:19:40;36.75;;;12.98;;
68457;SDS011;65384;52.016;5.428;2022-12-05T07:22:05;34.72;;;12.98;;
68457;SDS011;65384;52.016;5.428;2022-12-05T07:24:30;36.58;;;13.20;;
68457;SDS011;65384;52.016;5.428;2022-12-05T07:26:56;37.17;;;13.68;;
68457;SDS011;65384;52.016;5.428;2022-12-05T07:29:21;36.85;;;13.27;;
68457;SDS011;65384;52.016;5.428;2022-12-05T07:31:46;31.75;;;11.85;;
68457;SDS011;65384;52.016;5.428;2022-12-05T07:34:12;36.80;;;12.80;;
68457;SDS011;65384;52.016;5.428;2022-12-05T07:36:37;35.70;;;13.40;;
68457;SDS011;65384;52.016;5.428;2022-12-05T07:39:03;35.17;;;13.40;;
68457;SDS011;65384;52.016;5.428;2022-12-05T07:41:29;35.50;;;12.85;;
68457;SDS011;65384;52.016;5.428;2022-12-05T07:43:56;31.50;;;12.10;;
68457;SDS011;65384;52.016;5.428;2022-12-05T07:46:23;36.67;;;12.88;;
68457;SDS011;65384;52.016;5.428;2022-12-05T07:48:49;31.90;;;12.50;;
68457;SDS011;65384;52.016;5.428;2022-12-05T07:51:15;34.00;;;12.80;;
68457;SDS011;65384;52.016;5.428;2022-12-05T07:53:41;36.05;;;14.10;;
68457;SDS011;65384;52.016;5.428;2022-12-05T07:56:08;34.15;;;12.63;;
68457;SDS011;65384;52.016;5.428;2022-12-05T07:58:35;34.97;;;12.90;;
68457;SDS011;65384;52.016;5.428;2022-12-05T08:01:43;33.60;;;12.13;;
68457;SDS011;65384;52.016;5.428;2022-12-05T08:03:56;34.13;;;12.15;;
68457;SDS011;65384;52.016;5.428;2022-12-05T08:06:24;34.85;;;13.02;;
68457;SDS011;65384;52.016;5.428;2022-12-05T08:08:51;33.83;;;12.75;;
68457;SDS011;65384;52.016;5.428;2022-12-05T08:11:18;35.17;;;12.20;;
68457;SDS011;65384;52.016;5.428;2022-12-05T08:13:46;35.42;;;12.70;;
68457;SDS011;65384;52.016;5.428;2022-12-05T08:16:12;32.15;;;12.05;;
68457;SDS011;65384;52.016;5.428;2022-12-05T08:18:38;33.60;;;12.20;;
68457;SDS011;65384;52.016;5.428;2022-12-05T08:21:09;33.40;;;12.52;;
68457;SDS011;65384;52.016;5.428;2022-12-05T08:23:39;31.40;;;11.73;;
68457;SDS011;65384;52.016;5.428;2022-12-05T08:26:22;32.60;;;12.23;;
68457;SDS011;65384;52.016;5.428;2022-12-05T08:28:53;32.63;;;12.18;;
68457;SDS011;65384;52.016;5.428;2022-12-05T08:31:23;32.15;;;12.30;;
68457;SDS011;65384;52.016;5.428;2022-12-05T08:33:49;34.72;;;12.55;;
68457;SDS011;65384;52.016;5.428;2022-12-05T08:36:16;32.63;;;12.30;;
68457;SDS011;65384;52.016;5.428;2022-12-05T08:38:42;32.78;;;12.48;;
68457;SDS011;65384;52.016;5.428;2022-12-05T08:41:09;33.75;;;12.63;;
68457;SDS011;65384;52.016;5.428;2022-12-05T08:43:36;35.95;;;12.40;;
68457;SDS011;65384;52.016;5.428;2022-12-05T08:46:01;32.33;;;11.57;;
68457;SDS011;65384;52.016;5.428;2022-12-05T08:48:28;34.55;;;11.75;;
68457;SDS011;65384;52.016;5.428;2022-12-05T08:50:53;36.88;;;11.60;;
68457;SDS011;65384;52.016;5.428;2022-12-05T08:53:19;33.90;;;11.85;;
68457;SDS011;65384;52.016;5.428;2022-12-05T08:55:44;31.17;;;11.45;;
68457;SDS011;65384;52.016;5.428;2022-12-05T08:58:10;35.42;;;11.90;;
68457;SDS011;65384;52.016;5.428;2022-12-05T09:00:36;33.90;;;11.75;;
68457;SDS011;65384;52.016;5.428;2022-12-05T09:03:01;35.40;;;11.98;;
68457;SDS011;65384;52.016;5.428;2022-12-05T09:05:27;35.25;;;12.07;;
68457;SDS011;65384;52.016;5.428;2022-12-05T09:07:52;28.77;;;11.02;;
68457;SDS011;65384;52.016;5.428;2022-12-05T09:10:18;29.80;;;11.55;;
68457;SDS011;65384;52.016;5.428;2022-12-05T09:12:43;34.45;;;11.45;;
68457;SDS011;65384;52.016;5.428;2022-12-05T09:15:09;31.38;;;12.40;;
68457;SDS011;65384;52.016;5.428;2022-12-05T09:17:36;31.83;;;11.57;;
68457;SDS011;65384;52.016;5.428;2022-12-05T09:20:01;34.63;;;12.68;;
68457;SDS011;65384;52.016;5.428;2022-12-05T09:22:27;31.27;;;11.60;;
68457;SDS011;65384;52.016;5.428;2022-12-05T09:24:52;31.50;;;12.55;;
68457;SDS011;65384;52.016;5.428;2022-12-05T09:27:18;32.83;;;12.02;;
68457;SDS011;65384;52.016;5.428;2022-12-05T09:29:43;33.50;;;11.95;;
68457;SDS011;65384;52.016;5.428;2022-12-05T09:32:09;33.50;;;11.57;;
68457;SDS011;65384;52.016;5.428;2022-12-05T09:34:35;31.20;;;11.20;;
68457;SDS011;65384;52.016;5.428;2022-12-05T09:37:02;33.40;;;11.75;;
68457;SDS011;65384;52.016;5.428;2022-12-05T09:39:28;30.70;;;12.00;;
68457;SDS011;65384;52.016;5.428;2022-12-05T09:47:19;34.03;;;12.20;;
68457;SDS011;65384;52.016;5.428;2022-12-05T09:49:57;29.98;;;11.27;;
68457;SDS011;65384;52.016;5.428;2022-12-05T09:52:28;30.67;;;11.52;;
68457;SDS011;65384;52.016;5.428;2022-12-05T09:54:56;32.95;;;12.05;;
68457;SDS011;65384;52.016;5.428;2022-12-05T09:57:34;29.52;;;11.05;;
68457;SDS011;65384;52.016;5.428;2022-12-05T10:00:03;34.50;;;11.80;;
68457;SDS011;65384;52.016;5.428;2022-12-05T10:02:53;30.88;;;11.13;;
68457;SDS011;65384;52.016;5.428;2022-12-05T10:08:26;32.97;;;11.95;;
68457;SDS011;65384;52.016;5.428;2022-12-05T10:10:59;29.75;;;11.20;;
68457;SDS011;65384;52.016;5.428;2022-12-05T10:16:10;29.67;;;11.30;;
68457;SDS011;65384;52.016;5.428;2022-12-05T10:18:43;29.27;;;11.25;;
68457;SDS011;65384;52.016;5.428;2022-12-05T10:26:21;26.33;;;10.80;;
68457;SDS011;65384;52.016;5.428;2022-12-05T10:28:58;34.15;;;11.95;;
68457;SDS011;65384;52.016;5.428;2022-12-05T10:31:29;28.58;;;10.93;;
68457;SDS011;65384;52.016;5.428;2022-12-05T10:34:01;29.50;;;11.23;;
68457;SDS011;65384;52.016;5.428;2022-12-05T10:36:29;29.95;;;11.18;;
68457;SDS011;65384;52.016;5.428;2022-12-05T10:38:54;28.95;;;11.02;;
68457;SDS011;65384;52.016;5.428;2022-12-05T10:41:21;31.27;;;10.68;;
68457;SDS011;65384;52.016;5.428;2022-12-05T10:43:46;28.65;;;10.85;;
68457;SDS011;65384;52.016;5.428;2022-12-05T10:46:13;27.77;;;10.90;;
68457;SDS011;65384;52.016;5.428;2022-12-05T10:48:40;31.30;;;10.30;;
68457;SDS011;65384;52.016;5.428;2022-12-05T10:51:06;30.55;;;10.65;;
68457;SDS011;65384;52.016;5.428;2022-12-05T10:53:47;27.50;;;10.38;;
68457;SDS011;65384;52.016;5.428;2022-12-05T10:59:11;26.40;;;9.95;;
68457;SDS011;65384;52.016;5.428;2022-12-05T11:01:42;25.58;;;10.57;;
68457;SDS011;65384;52.016;5.428;2022-12-05T11:04:18;24.08;;;10.10;;
68457;SDS011;65384;52.016;5.428;2022-12-05T11:06:49;26.13;;;9.98;;
68457;SDS011;65384;52.016;5.428;2022-12-05T11:09:25;27.08;;;10.77;;
68457;SDS011;65384;52.016;5.428;2022-12-05T11:11:56;28.08;;;10.13;;
68457;SDS011;65384;52.016;5.428;2022-12-05T11:14:28;25.95;;;10.48;;
68457;SDS011;65384;52.016;5.428;2022-12-05T11:16:56;22.05;;;9.80;;
68457;SDS011;65384;52.016;5.428;2022-12-05T11:19:27;25.52;;;9.93;;
68457;SDS011;65384;52.016;5.428;2022-12-05T11:24:27;28.35;;;10.57;;
68457;SDS011;65384;52.016;5.428;2022-12-05T11:26:55;25.20;;;9.45;;
68457;SDS011;65384;52.016;5.428;2022-12-05T11:32:01;26.30;;;9.68;;
68457;SDS011;65384;52.016;5.428;2022-12-05T11:34:34;21.25;;;9.13;;
68457;SDS011;65384;52.016;5.428;2022-12-05T11:37:10;23.73;;;9.70;;
68457;SDS011;65384;52.016;5.428;2022-12-05T11:39:37;21.08;;;8.93;;
68457;SDS011;65384;52.016;5.428;2022-12-05T11:42:18;21.15;;;9.13;;
68457;SDS011;65384;52.016;5.428;2022-12-05T11:50:23;23.05;;;9.65;;
68457;SDS011;65384;52.016;5.428;2022-12-05T12:01:15;17.58;;;8.18;;
68457;SDS011;65384;52.016;5.428;2022-12-05T12:20:43;10.60;;;4.70;;
68457;SDS011;65384;52.016;5.428;2022-12-05T12:32:05;8.27;;;3.85;;
68457;SDS011;65384;52.016;5.428;2022-12-05T12:35:06;9.88;;;4.05;;
68457;SDS011;65384;52.016;5.428;2022-12-05T12:48:46;9.23;;;3.88;;
68457;SDS011;65384;52.016;5.428;2022-12-05T12:51:24;9.18;;;3.58;;
68457;SDS011;65384;52.016;5.428;2022-12-05T12:54:01;8.07;;;3.67;;
68457;SDS011;65384;52.016;5.428;2022-12-05T13:04:57;7.32;;;2.97;;
68457;SDS011;65384;52.016;5.428;2022-12-05T13:07:33;10.60;;;3.40;;
68457;SDS011;65384;52.016;5.428;2022-12-05T13:10:04;6.82;;;3.20;;
68457;SDS011;65384;52.016;5.428;2022-12-05T13:12:36;6.45;;;3.10;;
68457;SDS011;65384;52.016;5.428;2022-12-05T13:15:09;6.57;;;3.00;;
68457;SDS011;65384;52.016;5.428;2022-12-05T13:17:40;7.72;;;3.40;;
68457;SDS011;65384;52.016;5.428;2022-12-05T13:20:15;7.88;;;3.22;;
68457;SDS011;65384;52.016;5.428;2022-12-05T13:22:42;6.90;;;2.78;;
68457;SDS011;65384;52.016;5.428;2022-12-05T13:25:13;7.20;;;3.00;;
68457;SDS011;65384;52.016;5.428;2022-12-05T13:27:39;5.68;;;2.95;;
68457;SDS011;65384;52.016;5.428;2022-12-05T13:30:14;6.18;;;2.80;;
68457;SDS011;65384;52.016;5.428;2022-12-05T13:32:40;4.97;;;2.38;;
68457;SDS011;65384;52.016;5.428;2022-12-05T13:37:31;7.00;;;3.20;;
68457;SDS011;65384;52.016;5.428;2022-12-05T13:40:38;6.13;;;3.05;;
68457;SDS011;65384;52.016;5.428;2022-12-05T13:43:25;5.20;;;2.67;;
68457;SDS011;65384;52.016;5.428;2022-12-05T13:46:04;7.43;;;2.70;;
68457;SDS011;65384;52.016;5.428;2022-12-05T13:48:33;5.63;;;2.80;;
68457;SDS011;65384;52.016;5.428;2022-12-05T13:51:01;7.78;;;2.83;;
68457;SDS011;65384;52.016;5.428;2022-12-05T13:53:35;6.55;;;2.92;;
68457;SDS011;65384;52.016;5.428;2022-12-05T13:56:05;5.78;;;2.70;;
68457;SDS011;65384;52.016;5.428;2022-12-05T13:58:52;6.38;;;3.05;;
68457;SDS011;65384;52.016;5.428;2022-12-05T14:03:59;8.85;;;3.22;;
68457;SDS011;65384;52.016;5.428;2022-12-05T14:09:02;7.90;;;3.28;;
68457;SDS011;65384;52.016;5.428;2022-12-05T14:11:28;5.78;;;2.67;;
68457;SDS011;65384;52.016;5.428;2022-12-05T14:13:53;5.97;;;2.60;;
68457;SDS011;65384;52.016;5.428;2022-12-05T14:18:49;7.10;;;3.20;;
68457;SDS011;65384;52.016;5.428;2022-12-05T14:21:20;5.75;;;2.85;;
68457;SDS011;65384;52.016;5.428;2022-12-05T14:23:54;7.43;;;3.05;;
68457;SDS011;65384;52.016;5.428;2022-12-05T14:26:36;7.57;;;3.00;;
68457;SDS011;65384;52.016;5.428;2022-12-05T14:39:49;5.68;;;2.92;;
68457;SDS011;65384;52.016;5.428;2022-12-05T14:42:40;6.03;;;2.88;;
68457;SDS011;65384;52.016;5.428;2022-12-05T14:50:59;6.47;;;3.08;;
68457;SDS011;65384;52.016;5.428;2022-12-05T14:53:35;6.63;;;3.05;;
68457;SDS011;65384;52.016;5.428;2022-12-05T14:56:04;6.20;;;3.15;;
68457;SDS011;65384;52.016;5.428;2022-12-05T15:01:23;6.10;;;2.85;;
68457;SDS011;65384;52.016;5.428;2022-12-05T15:06:34;7.57;;;3.15;;
68457;SDS011;65384;52.016;5.428;2022-12-05T15:09:08;9.70;;;3.03;;
68457;SDS011;65384;52.016;5.428;2022-12-05T15:11:50;7.63;;;2.92;;
68457;SDS011;65384;52.016;5.428;2022-12-05T15:14:17;7.55;;;3.10;;
68457;SDS011;65384;52.016;5.428;2022-12-05T15:16:45;9.75;;;3.15;;
68457;SDS011;65384;52.016;5.428;2022-12-05T15:19:16;6.28;;;2.95;;
68457;SDS011;65384;52.016;5.428;2022-12-05T15:21:44;6.88;;;3.10;;
68457;SDS011;65384;52.016;5.428;2022-12-05T15:24:15;6.03;;;2.83;;
68457;SDS011;65384;52.016;5.428;2022-12-05T15:31:44;6.82;;;3.03;;
68457;SDS011;65384;52.016;5.428;2022-12-05T15:34:18;6.60;;;3.35;;
68457;SDS011;65384;52.016;5.428;2022-12-05T15:36:50;9.18;;;3.50;;
68457;SDS011;65384;52.016;5.428;2022-12-05T15:39:21;6.63;;;3.30;;
68457;SDS011;65384;52.016;5.428;2022-12-05T15:41:49;6.72;;;3.25;;
68457;SDS011;65384;52.016;5.428;2022-12-05T15:44:19;7.38;;;3.65;;
68457;SDS011;65384;52.016;5.428;2022-12-05T15:46:52;8.30;;;3.63;;
68457;SDS011;65384;52.016;5.428;2022-12-05T15:49:28;7.57;;;3.60;;
68457;SDS011;65384;52.016;5.428;2022-12-05T15:51:58;7.18;;;3.38;;
68457;SDS011;65384;52.016;5.428;2022-12-05T15:54:32;8.10;;;3.63;;
68457;SDS011;65384;52.016;5.428;2022-12-05T15:57:01;9.82;;;3.63;;
68457;SDS011;65384;52.016;5.428;2022-12-05T15:59:34;8.27;;;3.63;;
68457;SDS011;65384;52.016;5.428;2022-12-05T16:02:14;10.32;;;3.30;;
68457;SDS011;65384;52.016;5.428;2022-12-05T16:04:47;8.00;;;3.50;;
68457;SDS011;65384;52.016;5.428;2022-12-05T16:09:43;11.15;;;3.45;;
68457;SDS011;65384;52.016;5.428;2022-12-05T16:12:23;8.70;;;3.53;;
68457;SDS011;65384;52.016;5.428;2022-12-05T16:14:55;6.72;;;3.42;;
68457;SDS011;65384;52.016;5.428;2022-12-05T16:17:25;8.82;;;3.85;;
68457;SDS011;65384;52.016;5.428;2022-12-05T16:19:53;7.43;;;3.83;;
68457;SDS011;65384;52.016;5.428;2022-12-05T16:22:34;6.70;;;3.38;;
68457;SDS011;65384;52.016;5.428;2022-12-05T16:25:00;6.28;;;3.20;;
68457;SDS011;65384;52.016;5.428;2022-12-05T16:27:30;7.55;;;3.65;;
68457;SDS011;65384;52.016;5.428;2022-12-05T16:30:08;7.72;;;3.70;;
68457;SDS011;65384;52.016;5.428;2022-12-05T16:32:37;7.28;;;3.63;;
68457;SDS011;65384;52.016;5.428;2022-12-05T16:35:03;7.72;;;3.85;;
68457;SDS011;65384;52.016;5.428;2022-12-05T16:38:28;7.93;;;3.67;;
68457;SDS011;65384;52.016;5.428;2022-12-05T16:48:34;7.50;;;3.85;;
68457;SDS011;65384;52.016;5.428;2022-12-05T16:53:38;9.93;;;4.18;;
68457;SDS011;65384;52.016;5.428;2022-12-05T16:56:14;8.43;;;3.85;;
68457;SDS011;65384;52.016;5.428;2022-12-05T16:58:41;7.55;;;3.70;;
68457;SDS011;65384;52.016;5.428;2022-12-05T17:01:06;9.63;;;4.10;;
68457;SDS011;65384;52.016;5.428;2022-12-05T17:03:39;9.88;;;4.18;;
68457;SDS011;65384;52.016;5.428;2022-12-05T17:06:04;9.88;;;3.90;;
68457;SDS011;65384;52.016;5.428;2022-12-05T17:08:30;11.68;;;4.13;;
68457;SDS011;65384;52.016;5.428;2022-12-05T17:10:55;11.45;;;5.07;;
68457;SDS011;65384;52.016;5.428;2022-12-05T17:13:21;8.18;;;4.15;;
68457;SDS011;65384;52.016;5.428;2022-12-05T17:15:47;9.25;;;4.43;;
68457;SDS011;65384;52.016;5.428;2022-12-05T17:18:13;8.43;;;3.80;;
68457;SDS011;65384;52.016;5.428;2022-12-05T17:20:41;8.23;;;3.88;;
68457;SDS011;65384;52.016;5.428;2022-12-05T17:23:14;7.15;;;3.78;;
68457;SDS011;65384;52.016;5.428;2022-12-05T17:28:09;7.00;;;3.55;;
68457;SDS011;65384;52.016;5.428;2022-12-05T17:30:34;9.13;;;3.72;;
68457;SDS011;65384;52.016;5.428;2022-12-05T17:33:01;9.82;;;3.80;;
68457;SDS011;65384;52.016;5.428;2022-12-05T17:35:27;9.38;;;4.00;;
68457;SDS011;65384;52.016;5.428;2022-12-05T17:37:56;8.90;;;3.88;;